首页
METAR-TAF:

METAR-TAF

机场 :

Capo Mele

Andora, 意大利

纬度: 43-57N, 经度: 008-10E, 海拔: 220米

当前天气观测

该预报发布于1小时和19分钟前的05:55 UTC
风速14节,风向北转东北
温度 19°C
湿度 100%
气压 1013 hPa
能见度10公里或以上
散云层高于1000英尺
多云层高于2500英尺

METAR: LIMU 150555Z 03014KT 9999 SCT010 BKN025 19/19 Q1013 RMK OVC BKN080 QUK 2 QUL 1 SE VIS MAR 10 KM VIS MIN 9999

时间: 09:14 (07:14 UTC)


TAF: 丢失

超过4000个机场的气象观测和天气预报(METAR&TAF报告)。

可查询的气象台以黄色和红色小点在地图上表示。

将鼠标移到小点上方,可查看气象台名称。

然后点击查看天气观测和预报。

如需切换地图:点击带黑十字的绿色按钮放大地图;点击带横线的绿色按钮缩小地图;或者点击绿色箭头查看邻近地区的地图。


METAR-TAF: